Mumbles, United Kingdom
Current Conditions -  °F | °C
As of 11:50 AM on Monday 29 Dec 2014 (Local Time) from EGOP Reporting Station
Clear Clear  
Wind Chill: 34°   Ceiling: Unl
Heat Index: 34°   Visibility: 6mi
Dew Point: 32°   Wind: 1mph
Humidity: 93%   Direction: 70°ENE
Pressure: 30.8"   Gusts: NA
Location:  51.57°N, 3.98°W
Report Text: EGOP 291150Z AUTO 07001KT 9999 // NCD 01/00 Q1043
Loading
Personal Weather Stations






























Interactive Weather Map New forecast layout! Learn more

10-Day Weather Forecast

Advertisements
Track Severe Weather on mobile